Time;durP1;ratioP1;P1;durP2;ratioP2;P2;SDS_P1;SDS_P2;PMS_P1;PMS_P2;Temp;Humidity;BMP_temperature;BMP_pressure;BME280_temperature;BME280_humidity;BME280_pressure;Samples;Min_cycle;Max_cycle;Signal;HPM_P1;HPM_P2
2021/04/09 00:05:08;;;;;;;0.40;0.25;;;8.70;59.60;;;;;;20874671;28;20071;-72
2021/04/09 00:15:10;;;;;;;0.93;0.45;;;8.70;59.60;;;;;;20905750;28;20037;-73
2021/04/09 00:25:11;;;;;;;1.08;0.35;;;8.70;59.50;;;;;;20889112;28;20037;-72
2021/04/09 00:35:12;;;;;;;0.63;0.47;;;8.70;59.60;;;;;;20872448;28;20044;-73
2021/04/09 00:45:14;;;;;;;1.98;0.47;;;8.70;59.50;;;;;;20872682;28;20025;-73
2021/04/09 00:55:15;;;;;;;0.80;0.38;;;8.70;59.60;;;;;;20871276;28;20037;-73
2021/04/09 01:05:16;;;;;;;0.90;0.43;;;8.70;59.60;;;;;;20871839;28;20041;-72
2021/04/09 01:15:17;;;;;;;0.60;0.50;;;8.70;59.50;;;;;;20886332;28;20299;-73
2021/04/09 01:25:37;;;;;;;0.25;0.22;;;8.70;59.60;;;;;;20874714;28;20025;-73
2021/04/09 01:35:39;;;;;;;0.90;0.57;;;8.70;59.50;;;;;;20902219;28;20584;-74
2021/04/09 01:45:39;;;;;;;0.47;0.43;;;8.70;59.50;;;;;;20895441;28;20036;-73
2021/04/09 01:55:43;;;;;;;3.40;0.47;;;8.70;59.50;;;;;;20867800;28;20041;-73
2021/04/09 02:05:44;;;;;;;0.88;0.50;;;8.60;59.40;;;;;;20867451;28;20454;-73
2021/04/09 02:15:44;;;;;;;0.20;0.15;;;8.60;59.40;;;;;;20882759;28;20135;-73
2021/04/09 02:25:45;;;;;;;0.22;0.22;;;8.60;59.40;;;;;;20898470;28;20036;-73
2021/04/09 02:35:45;;;;;;;0.40;0.30;;;8.70;59.50;;;;;;20864528;28;20037;-75
2021/04/09 02:45:46;;;;;;;0.35;0.32;;;8.70;59.40;;;;;;20898475;28;20290;-73
2021/04/09 02:55:47;;;;;;;2.53;0.75;;;8.70;59.50;;;;;;20895902;28;20047;-73
2021/04/09 03:05:49;;;;;;;8.30;0.40;;;8.60;59.40;;;;;;20911963;28;20056;-73
2021/04/09 03:15:51;;;;;;;1.00;0.65;;;8.60;59.40;;;;;;20878428;28;20037;-72
2021/04/09 03:25:51;;;;;;;0.75;0.40;;;8.70;59.60;;;;;;20861343;28;20135;-74
2021/04/09 03:35:52;;;;;;;0.43;0.30;;;8.70;59.60;;;;;;20876831;28;20491;-73
2021/04/09 03:45:53;;;;;;;1.35;0.75;;;8.70;59.50;;;;;;20943095;28;20470;-73
2021/04/09 03:55:53;;;;;;;0.75;0.32;;;8.70;59.40;;;;;;20973926;28;20498;-73
2021/04/09 04:05:54;;;;;;;0.68;0.55;;;8.70;59.30;;;;;;20973208;28;20032;-72
2021/04/09 04:15:54;;;;;;;0.73;0.53;;;8.70;59.30;;;;;;20972405;28;20991;-72
2021/04/09 04:25:55;;;;;;;0.40;0.40;;;8.80;59.60;;;;;;20971965;28;20377;-72
2021/04/09 04:35:56;;;;;;;0.50;0.30;;;8.80;59.60;;;;;;20954315;28;20378;-74
2021/04/09 04:45:56;;;;;;;0.30;0.30;;;9.00;60.20;;;;;;20987293;28;20347;-73
2021/04/09 04:55:57;;;;;;;0.45;0.45;;;9.10;59.40;;;;;;20985875;28;20386;-74
2021/04/09 05:05:57;;;;;;;0.30;0.30;;;9.20;59.10;;;;;;20969806;28;20089;-73
2021/04/09 05:15:58;;;;;;;0.93;0.40;;;9.20;58.70;;;;;;20982436;28;20443;-73
2021/04/09 05:25:59;;;;;;;0.20;0.20;;;9.20;58.30;;;;;;20977259;28;20366;-73
2021/04/09 05:35:59;;;;;;;0.77;0.50;;;9.10;58.10;;;;;;20951764;28;20047;-74
2021/04/09 05:46:00;;;;;;;0.33;0.30;;;9.10;57.90;;;;;;20968292;28;20025;-73
2021/04/09 05:56:00;;;;;;;1.20;0.70;;;9.00;57.90;;;;;;20967821;28;20377;-73
2021/04/09 06:06:01;;;;;;;0.20;0.20;;;8.90;57.90;;;;;;20953163;28;20369;-73
2021/04/09 06:16:02;;;;;;;0.43;0.40;;;8.90;58.00;;;;;;20965142;28;20051;-72
2021/04/09 06:26:03;;;;;;;0.38;0.35;;;8.80;58.10;;;;;;20964539;28;20055;-76
2021/04/09 06:36:05;;;;;;;0.70;0.40;;;8.80;58.30;;;;;;20964022;28;20067;-72
2021/04/09 06:46:05;;;;;;;0.47;0.40;;;8.80;58.70;;;;;;20951569;28;20290;-76
2021/04/09 06:56:07;;;;;;;1.35;0.45;;;8.80;58.50;;;;;;20897973;28;20643;-75
2021/04/09 07:06:08;;;;;;;0.38;0.32;;;8.80;58.60;;;;;;20898970;28;20033;-77
2021/04/09 07:16:09;;;;;;;0.63;0.50;;;8.80;58.70;;;;;;20872038;28;20143;-76
2021/04/09 07:26:09;;;;;;;2.10;0.40;;;8.80;58.70;;;;;;20894186;28;20036;-76
2021/04/09 07:36:10;;;;;;;0.50;0.40;;;8.80;58.80;;;;;;20875945;28;20044;-75
2021/04/09 07:46:20;;;;;;;0.90;0.50;;;9.00;58.90;;;;;;20875632;28;20029;-75
2021/04/09 07:56:21;;;;;;;1.50;0.43;;;8.90;58.80;;;;;;20891450;28;20438;-74
2021/04/09 08:06:23;;;;;;;2.40;0.93;;;8.90;58.70;;;;;;20890698;28;20037;-75
2021/04/09 08:16:47;;;;;;;2.35;1.38;;;9.00;58.80;;;;;;20867876;28;20471;-71
2021/04/09 08:37:21;;;;;;;2.50;1.02;;;9.30;58.40;;;;;;21006159;22;20488;-75
2021/04/09 08:47:22;;;;;;;4.22;0.90;;;9.40;58.50;;;;;;20723933;28;20041;-76
2021/04/09 08:57:30;;;;;;;0.30;0.30;;;9.40;58.50;;;;;;20740005;28;20460;-73
2021/04/09 09:07:43;;;;;;;0.80;0.70;;;9.40;58.70;;;;;;20739535;28;20776;-75
2021/04/09 09:17:43;;;;;;;1.95;1.20;;;9.40;58.50;;;;;;20738890;28;20493;-74
2021/04/09 09:27:52;;;;;;;1.30;0.47;;;9.40;58.40;;;;;;20706425;28;20136;-76
2021/04/09 09:37:52;;;;;;;1.85;0.95;;;9.40;58.20;;;;;;20721530;28;20297;-76
2021/04/09 09:47:53;;;;;;;1.47;0.97;;;9.30;58.20;;;;;;20720034;28;20048;-77
2021/04/09 09:58:10;;;;;;;1.45;0.70;;;9.30;58.20;;;;;;20752083;28;20308;-74
2021/04/09 10:08:11;;;;;;;1.70;0.82;;;9.30;58.30;;;;;;20752100;28;20288;-74
2021/04/09 10:18:11;;;;;;;3.38;1.10;;;9.30;58.40;;;;;;20713368;28;20038;-74
2021/04/09 10:28:13;;;;;;;1.10;0.80;;;9.30;58.50;;;;;;20712328;28;20044;-75
2021/04/09 10:38:16;;;;;;;0.80;0.80;;;9.30;58.40;;;;;;20725987;28;20049;-82
2021/04/09 10:48:21;;;;;;;1.70;0.75;;;9.30;58.60;;;;;;20744868;28;20120;-81
2021/04/09 10:58:21;;;;;;;0.98;0.50;;;9.30;58.80;;;;;;20714644;28;20049;-78
2021/04/09 11:08:58;;;;;;;0.50;0.50;;;9.30;58.90;;;;;;20716014;28;20045;-72
2021/04/09 11:18:59;;;;;;;0.73;0.52;;;9.40;59.00;;;;;;20697207;28;20050;-76
2021/04/09 11:29:00;;;;;;;2.35;0.88;;;9.40;59.00;;;;;;20674619;28;20038;-78
2021/04/09 11:39:08;;;;;;;0.52;0.50;;;9.40;59.10;;;;;;20686357;28;20042;-79
2021/04/09 11:49:09;;;;;;;0.93;0.52;;;9.40;59.20;;;;;;20692425;28;20044;-83
2021/04/09 11:59:20;;;;;;;0.57;0.40;;;9.50;59.20;;;;;;20730058;28;20046;-81
2021/04/09 12:09:20;;;;;;;0.63;0.32;;;9.40;59.30;;;;;;20679373;28;20571;-79
2021/04/09 12:19:27;;;;;;;3.00;1.20;;;9.50;59.50;;;;;;20698247;28;20170;-79
2021/04/09 12:29:31;;;;;;;0.32;0.30;;;9.50;59.60;;;;;;20717120;28;20455;-79
2021/04/09 12:39:36;;;;;;;0.95;0.63;;;9.50;59.60;;;;;;20692552;28;20439;-78
2021/04/09 12:49:37;;;;;;;0.40;0.30;;;9.50;59.60;;;;;;20737209;28;20034;-80
2021/04/09 12:59:38;;;;;;;0.30;0.28;;;9.50;59.70;;;;;;20678229;28;20065;-80
2021/04/09 13:09:39;;;;;;;2.30;0.65;;;9.50;59.70;;;;;;20678940;28;20034;-80
2021/04/09 13:19:42;;;;;;;0.22;0.22;;;9.60;60.10;;;;;;20748555;28;20034;-80
2021/04/09 13:29:44;;;;;;;0.50;0.40;;;9.80;59.90;;;;;;20755270;28;20104;-80
2021/04/09 13:39:44;;;;;;;0.30;0.30;;;9.90;59.70;;;;;;20735037;28;20456;-80
2021/04/09 13:49:45;;;;;;;3.13;0.55;;;9.80;59.30;;;;;;20718240;28;20046;-79
2021/04/09 13:59:46;;;;;;;0.60;0.60;;;9.70;59.50;;;;;;20733134;28;20037;-78
2021/04/09 14:09:47;;;;;;;0.10;0.10;;;9.60;59.60;;;;;;20720017;28;20132;-78
2021/04/09 14:19:48;;;;;;;1.52;0.60;;;9.60;59.80;;;;;;20702441;28;20053;-78
2021/04/09 14:29:48;;;;;;;0.93;0.47;;;9.60;60.00;;;;;;20717659;28;20571;-76
2021/04/09 14:39:49;;;;;;;0.20;0.20;;;9.80;60.30;;;;;;20701210;28;20087;-77
2021/04/09 14:49:51;;;;;;;0.40;0.40;;;9.80;60.30;;;;;;20694937;28;20132;-77
2021/04/09 14:59:52;;;;;;;3.33;0.88;;;9.90;60.30;;;;;;20730688;28;20484;-75
2021/04/09 15:09:52;;;;;;;0.20;0.20;;;10.00;61.00;;;;;;20715148;28;20133;-76
2021/04/09 15:19:53;;;;;;;3.00;0.97;;;10.20;60.30;;;;;;20730716;28;20367;-77
2021/04/09 15:29:54;;;;;;;1.38;0.68;;;10.40;60.20;;;;;;20575097;28;21185;-75
2021/04/09 15:39:56;;;;;;;1.27;0.90;;;10.40;60.00;;;;;;20527280;28;20038;-72
2021/04/09 15:49:57;;;;;;;2.00;0.60;;;10.60;60.30;;;;;;20504718;28;20060;-75
2021/04/09 15:59:57;;;;;;;6.00;0.77;;;10.70;60.00;;;;;;20510402;28;20116;-73
2021/04/09 16:09:58;;;;;;;1.13;0.57;;;10.50;60.60;;;;;;20483916;28;21132;-73
2021/04/09 16:19:59;;;;;;;1.38;0.50;;;10.40;61.10;;;;;;20506930;28;20060;-73
2021/04/09 16:30:00;;;;;;;1.45;0.90;;;10.30;61.30;;;;;;20617217;28;20041;-73
2021/04/09 16:40:00;;;;;;;0.52;0.38;;;10.30;61.30;;;;;;20731618;28;20030;-74
2021/04/09 16:50:02;;;;;;;0.40;0.40;;;10.20;61.40;;;;;;20518179;28;20296;-72
2021/04/09 17:00:05;;;;;;;1.35;0.40;;;10.10;61.70;;;;;;20495986;28;20280;-72
2021/04/09 17:10:07;;;;;;;0.30;0.30;;;10.00;61.70;;;;;;20665520;28;20108;-72
2021/04/09 17:20:10;;;;;;;0.43;0.35;;;10.00;61.80;;;;;;20764498;28;20036;-72
2021/04/09 17:30:11;;;;;;;0.63;0.55;;;10.00;61.90;;;;;;20757050;28;20048;-72
2021/04/09 17:40:13;;;;;;;0.77;0.50;;;9.90;62.00;;;;;;20467818;28;20133;-73
2021/04/09 17:50:16;;;;;;;0.40;0.40;;;9.90;62.10;;;;;;20535753;28;20038;-72
2021/04/09 18:00:17;;;;;;;3.00;0.70;;;9.90;62.10;;;;;;20549752;28;20163;-74
2021/04/09 18:10:18;;;;;;;0.55;0.30;;;9.90;62.20;;;;;;20502014;28;20073;-73
2021/04/09 18:20:18;;;;;;;1.15;0.68;;;10.00;62.20;;;;;;20676961;28;20038;-71
2021/04/09 18:30:19;;;;;;;0.88;0.80;;;10.00;62.20;;;;;;20717506;28;20041;-70
2021/04/09 18:40:20;;;;;;;1.20;0.60;;;10.00;62.30;;;;;;20732964;28;20181;-71
2021/04/09 18:50:21;;;;;;;0.40;0.40;;;10.30;63.10;;;;;;20748187;28;20038;-72
2021/04/09 19:00:22;;;;;;;2.03;0.93;;;10.30;63.10;;;;;;20714390;28;20281;-71
2021/04/09 19:10:24;;;;;;;8.05;2.90;;;10.30;63.40;;;;;;20729717;28;20488;-72
2021/04/09 19:20:24;;;;;;;14.13;5.38;;;10.30;63.60;;;;;;20545152;28;20115;-76
2021/04/09 19:30:27;;;;;;;7.40;4.47;;;10.20;63.60;;;;;;20515792;28;20787;-73
2021/04/09 19:40:28;;;;;;;13.90;5.15;;;10.30;63.80;;;;;;20654274;28;20037;-72
2021/04/09 19:50:29;;;;;;;17.10;6.17;;;10.30;63.90;;;;;;20732129;28;20459;-71
2021/04/09 20:00:30;;;;;;;15.03;5.40;;;10.30;63.90;;;;;;20743941;28;20289;-75
2021/04/09 20:10:32;;;;;;;11.90;4.30;;;10.20;63.90;;;;;;20740393;28;20775;-71
2021/04/09 20:20:32;;;;;;;9.98;4.55;;;10.20;64.00;;;;;;20725376;28;20044;-71
2021/04/09 20:30:33;;;;;;;6.50;3.63;;;10.10;63.90;;;;;;20720009;28;20296;-71
2021/04/09 20:40:33;;;;;;;16.77;4.05;;;10.10;64.00;;;;;;20665203;28;20069;-72
2021/04/09 20:50:34;;;;;;;6.20;3.50;;;10.00;64.60;;;;;;20702649;28;20301;-71
2021/04/09 21:00:35;;;;;;;8.57;3.65;;;10.00;64.00;;;;;;20738824;28;20030;-71
2021/04/09 21:10:36;;;;;;;8.15;4.63;;;10.00;64.00;;;;;;20738591;28;20041;-70
2021/04/09 21:20:37;;;;;;;8.13;3.47;;;9.90;63.90;;;;;;20723450;28;20477;-71
2021/04/09 21:30:38;;;;;;;6.53;3.00;;;9.90;64.00;;;;;;20721812;28;20091;-71
2021/04/09 21:40:38;;;;;;;7.15;3.80;;;9.90;64.00;;;;;;20712261;28;20038;-71
2021/04/09 21:50:39;;;;;;;5.28;3.15;;;9.90;64.00;;;;;;20720667;28;20037;-72
2021/04/09 22:00:39;;;;;;;7.32;4.82;;;9.90;64.10;;;;;;20753741;28;20373;-72
2021/04/09 22:10:40;;;;;;;6.90;2.97;;;9.90;64.10;;;;;;20750022;28;20930;-72
2021/04/09 22:20:41;;;;;;;8.50;3.80;;;9.90;64.10;;;;;;20717519;28;20300;-71
2021/04/09 22:30:42;;;;;;;3.67;2.05;;;9.80;64.00;;;;;;20717544;28;20400;-70
2021/04/09 22:40:43;;;;;;;7.78;3.42;;;9.80;64.00;;;;;;20750571;28;20030;-72
2021/04/09 22:50:43;;;;;;;10.23;2.75;;;9.80;64.00;;;;;;20716020;28;20057;-71
2021/04/09 23:00:45;;;;;;;3.50;2.80;;;9.80;64.10;;;;;;20731503;28;20088;-71
2021/04/09 23:10:46;;;;;;;5.75;2.05;;;9.80;64.10;;;;;;20747124;28;20516;-71
2021/04/09 23:20:46;;;;;;;3.47;2.17;;;9.80;64.10;;;;;;20715022;28;20080;-72
2021/04/09 23:30:47;;;;;;;2.95;1.63;;;9.80;64.10;;;;;;20729505;28;20065;-71
2021/04/09 23:40:47;;;;;;;4.47;2.35;;;9.70;64.10;;;;;;20724737;28;20429;-71
2021/04/09 23:50:48;;;;;;;5.75;2.25;;;9.80;64.20;;;;;;20743883;28;20041;-71
